KBCB

Virginia Tech / Montgomery Executive Airport

Blacksburg, Virginia, USA
KBCB 170111Z 1701/1724 29007G15KT P6SM OVC015 FM170400 VRB02KT P6SM BKN035 FM170700 00000KT 5SM BR BKN025 FM171300 VRB02KT P6SM BKN025
Issued Valid From Valid To
Jan-17 @ 01:11 UTC
(4 hours ago)
Jan-17 @ 01:00 UTC
(4 hours ago)
Jan-18 @ 00:00 UTC
(in 19 hours)
Expired Click to View Jan-17 @ 01:00 to Jan-17 @ 04:00
KBCB 170111Z 1701/1724 29007G15KT P6SM OVC015
Wind Visibility Clouds
290° at 7 knots
 Gusting to 15 knots
Greater than 6 miles
  • Overcast at 1,500' AGL
From Jan-17 @ 04:00 to Jan-17 @ 07:00
FM170400 VRB02KT P6SM BKN035
Wind Visibility Clouds
Variable at 2 knots Greater than 6 miles
  • Broken at 3,500' AGL
From Jan-17 @ 07:00 to Jan-17 @ 13:00
FM170700 00000KT 5SM BR BKN025
Visibility Clouds Conditions
5 miles
  • Broken at 2,500' AGL
  • Mist
From Jan-17 @ 13:00 to Jan-18 @ 00:00
FM171300 VRB02KT P6SM BKN025
Wind Visibility Clouds
Variable at 2 knots Greater than 6 miles
  • Broken at 2,500' AGL
KBCB 170111Z 1701/1724 29007G15KT P6SM OVC015 FM170400 VRB02KT P6SM BKN035 FM170700 00000KT 5SM BR BKN025 FM171300 VRB02KT P6SM BKN025
Issued Jan-17 @ 01:11 UTC
(4 hours ago)
Valid From Jan-17 @ 01:00 UTC
(4 hours ago)
Valid To Jan-18 @ 00:00 UTC
(in 19 hours)
Jan-17 @ 01:00 - Jan-17 @ 04:00
Wind Visibility
290° at 7 knots
 Gusting to 15 knots
Greater than 6 miles
Clouds
  • Overcast at 1,500' AGL
From Jan-17 @ 04:00 - Jan-17 @ 07:00
Wind Visibility
Variable at 2 knots Greater than 6 miles
Clouds
  • Broken at 3,500' AGL
From Jan-17 @ 07:00 - Jan-17 @ 13:00
Clouds
  • Broken at 2,500' AGL
Conditions
  • Mist
From Jan-17 @ 13:00 - Jan-18 @ 00:00
Wind Visibility
Variable at 2 knots Greater than 6 miles
Clouds
  • Broken at 2,500' AGL